sensor_id;sensor_type;location;lat;lon;timestamp;P1;durP1;ratioP1;P2;durP2;ratioP2
15748;SDS011;7976;52.526;13.326;2023-02-15T00:01:47;38.35;;;15.20;;
15748;SDS011;7976;52.526;13.326;2023-02-15T00:04:15;35.95;;;15.60;;
15748;SDS011;7976;52.526;13.326;2023-02-15T00:06:46;37.53;;;15.77;;
15748;SDS011;7976;52.526;13.326;2023-02-15T00:09:14;32.75;;;15.23;;
15748;SDS011;7976;52.526;13.326;2023-02-15T00:11:42;37.55;;;15.65;;
15748;SDS011;7976;52.526;13.326;2023-02-15T00:14:15;35.72;;;15.57;;
15748;SDS011;7976;52.526;13.326;2023-02-15T00:16:46;34.97;;;15.35;;
15748;SDS011;7976;52.526;13.326;2023-02-15T00:19:16;37.47;;;15.75;;
15748;SDS011;7976;52.526;13.326;2023-02-15T00:21:48;35.10;;;14.93;;
15748;SDS011;7976;52.526;13.326;2023-02-15T00:24:16;36.28;;;15.48;;
15748;SDS011;7976;52.526;13.326;2023-02-15T00:26:45;37.95;;;15.15;;
15748;SDS011;7976;52.526;13.326;2023-02-15T00:29:15;36.13;;;15.70;;
15748;SDS011;7976;52.526;13.326;2023-02-15T00:31:44;38.42;;;14.80;;
15748;SDS011;7976;52.526;13.326;2023-02-15T00:34:14;34.00;;;14.63;;
15748;SDS011;7976;52.526;13.326;2023-02-15T00:36:44;35.08;;;15.30;;
15748;SDS011;7976;52.526;13.326;2023-02-15T00:39:14;38.53;;;15.63;;
15748;SDS011;7976;52.526;13.326;2023-02-15T00:41:43;38.97;;;16.00;;
15748;SDS011;7976;52.526;13.326;2023-02-15T00:44:11;38.50;;;16.30;;
15748;SDS011;7976;52.526;13.326;2023-02-15T00:46:41;34.53;;;15.55;;
15748;SDS011;7976;52.526;13.326;2023-02-15T00:49:08;37.80;;;15.48;;
15748;SDS011;7976;52.526;13.326;2023-02-15T00:51:37;41.47;;;17.45;;
15748;SDS011;7976;52.526;13.326;2023-02-15T00:54:06;38.00;;;16.30;;
15748;SDS011;7976;52.526;13.326;2023-02-15T00:56:35;41.75;;;16.55;;
15748;SDS011;7976;52.526;13.326;2023-02-15T00:59:02;38.55;;;16.10;;
15748;SDS011;7976;52.526;13.326;2023-02-15T01:01:30;39.63;;;16.83;;
15748;SDS011;7976;52.526;13.326;2023-02-15T01:03:57;36.83;;;15.35;;
15748;SDS011;7976;52.526;13.326;2023-02-15T01:06:24;40.00;;;16.15;;
15748;SDS011;7976;52.526;13.326;2023-02-15T01:08:51;36.25;;;14.93;;
15748;SDS011;7976;52.526;13.326;2023-02-15T01:11:19;37.55;;;16.05;;
15748;SDS011;7976;52.526;13.326;2023-02-15T01:13:51;39.03;;;16.52;;
15748;SDS011;7976;52.526;13.326;2023-02-15T01:16:22;42.80;;;17.50;;
15748;SDS011;7976;52.526;13.326;2023-02-15T01:18:52;40.28;;;16.55;;
15748;SDS011;7976;52.526;13.326;2023-02-15T01:21:21;38.17;;;16.48;;
15748;SDS011;7976;52.526;13.326;2023-02-15T01:23:50;40.13;;;17.30;;
15748;SDS011;7976;52.526;13.326;2023-02-15T01:26:18;40.95;;;17.48;;
15748;SDS011;7976;52.526;13.326;2023-02-15T01:28:46;37.13;;;16.80;;
15748;SDS011;7976;52.526;13.326;2023-02-15T01:31:17;40.20;;;15.45;;
15748;SDS011;7976;52.526;13.326;2023-02-15T01:33:46;40.60;;;17.33;;
15748;SDS011;7976;52.526;13.326;2023-02-15T01:36:15;42.25;;;16.45;;
15748;SDS011;7976;52.526;13.326;2023-02-15T01:38:42;40.72;;;16.70;;
15748;SDS011;7976;52.526;13.326;2023-02-15T01:41:09;42.97;;;17.45;;
15748;SDS011;7976;52.526;13.326;2023-02-15T01:43:48;41.97;;;17.05;;
15748;SDS011;7976;52.526;13.326;2023-02-15T01:46:20;42.85;;;17.27;;
15748;SDS011;7976;52.526;13.326;2023-02-15T01:48:55;43.45;;;18.08;;
15748;SDS011;7976;52.526;13.326;2023-02-15T01:51:30;42.58;;;18.20;;
15748;SDS011;7976;52.526;13.326;2023-02-15T01:54:01;43.28;;;16.70;;
15748;SDS011;7976;52.526;13.326;2023-02-15T01:56:35;45.95;;;17.73;;
15748;SDS011;7976;52.526;13.326;2023-02-15T01:59:06;42.65;;;17.77;;
15748;SDS011;7976;52.526;13.326;2023-02-15T02:01:42;42.28;;;17.98;;
15748;SDS011;7976;52.526;13.326;2023-02-15T02:04:12;40.15;;;17.50;;
15748;SDS011;7976;52.526;13.326;2023-02-15T02:06:48;41.13;;;17.33;;
15748;SDS011;7976;52.526;13.326;2023-02-15T02:09:17;49.63;;;18.95;;
15748;SDS011;7976;52.526;13.326;2023-02-15T02:11:45;42.80;;;17.80;;
15748;SDS011;7976;52.526;13.326;2023-02-15T02:14:14;42.00;;;17.85;;
15748;SDS011;7976;52.526;13.326;2023-02-15T02:16:46;45.83;;;19.17;;
15748;SDS011;7976;52.526;13.326;2023-02-15T02:29:50;46.15;;;17.85;;
15748;SDS011;7976;52.526;13.326;2023-02-15T02:32:59;51.45;;;18.98;;
15748;SDS011;7976;52.526;13.326;2023-02-15T02:36:08;49.13;;;18.35;;
15748;SDS011;7976;52.526;13.326;2023-02-15T02:39:00;44.25;;;17.48;;
15748;SDS011;7976;52.526;13.326;2023-02-15T02:41:42;48.83;;;18.17;;
15748;SDS011;7976;52.526;13.326;2023-02-15T02:44:22;54.15;;;20.08;;
15748;SDS011;7976;52.526;13.326;2023-02-15T02:46:57;49.08;;;18.35;;
15748;SDS011;7976;52.526;13.326;2023-02-15T02:49:34;50.60;;;18.05;;
15748;SDS011;7976;52.526;13.326;2023-02-15T02:52:06;51.15;;;18.85;;
15748;SDS011;7976;52.526;13.326;2023-02-15T02:55:10;53.85;;;19.40;;
15748;SDS011;7976;52.526;13.326;2023-02-15T02:57:46;51.40;;;19.98;;
15748;SDS011;7976;52.526;13.326;2023-02-15T03:00:20;49.30;;;19.35;;
15748;SDS011;7976;52.526;13.326;2023-02-15T03:02:53;53.70;;;19.90;;
15748;SDS011;7976;52.526;13.326;2023-02-15T03:05:30;53.50;;;19.38;;
15748;SDS011;7976;52.526;13.326;2023-02-15T03:08:04;50.90;;;19.02;;
15748;SDS011;7976;52.526;13.326;2023-02-15T03:10:35;48.65;;;19.48;;
15748;SDS011;7976;52.526;13.326;2023-02-15T03:13:06;51.95;;;19.52;;
15748;SDS011;7976;52.526;13.326;2023-02-15T03:15:37;49.58;;;18.33;;
15748;SDS011;7976;52.526;13.326;2023-02-15T03:18:37;50.63;;;20.00;;
15748;SDS011;7976;52.526;13.326;2023-02-15T03:21:19;53.42;;;19.33;;
15748;SDS011;7976;52.526;13.326;2023-02-15T03:23:56;54.80;;;20.17;;
15748;SDS011;7976;52.526;13.326;2023-02-15T03:26:32;52.40;;;20.35;;
15748;SDS011;7976;52.526;13.326;2023-02-15T03:29:03;55.30;;;20.77;;
15748;SDS011;7976;52.526;13.326;2023-02-15T03:31:40;59.22;;;21.50;;
15748;SDS011;7976;52.526;13.326;2023-02-15T03:34:12;57.75;;;20.77;;
15748;SDS011;7976;52.526;13.326;2023-02-15T03:36:44;62.70;;;21.98;;
15748;SDS011;7976;52.526;13.326;2023-02-15T03:39:22;55.42;;;20.90;;
15748;SDS011;7976;52.526;13.326;2023-02-15T03:41:58;60.17;;;22.40;;
15748;SDS011;7976;52.526;13.326;2023-02-15T03:44:37;57.20;;;21.95;;
15748;SDS011;7976;52.526;13.326;2023-02-15T03:47:16;61.08;;;22.00;;
15748;SDS011;7976;52.526;13.326;2023-02-15T03:49:50;62.22;;;22.83;;
15748;SDS011;7976;52.526;13.326;2023-02-15T03:52:24;63.28;;;22.48;;
15748;SDS011;7976;52.526;13.326;2023-02-15T03:54:56;57.53;;;21.30;;
15748;SDS011;7976;52.526;13.326;2023-02-15T03:57:25;52.88;;;21.23;;
15748;SDS011;7976;52.526;13.326;2023-02-15T04:00:13;63.55;;;21.73;;
15748;SDS011;7976;52.526;13.326;2023-02-15T04:03:06;59.10;;;20.98;;
15748;SDS011;7976;52.526;13.326;2023-02-15T04:05:48;59.75;;;20.15;;
15748;SDS011;7976;52.526;13.326;2023-02-15T04:08:16;62.40;;;20.70;;
15748;SDS011;7976;52.526;13.326;2023-02-15T04:10:44;58.15;;;21.35;;
15748;SDS011;7976;52.526;13.326;2023-02-15T04:13:23;60.05;;;20.60;;
15748;SDS011;7976;52.526;13.326;2023-02-15T04:15:57;55.78;;;20.55;;
15748;SDS011;7976;52.526;13.326;2023-02-15T04:18:29;57.65;;;20.70;;
15748;SDS011;7976;52.526;13.326;2023-02-15T04:21:16;53.95;;;21.70;;
15748;SDS011;7976;52.526;13.326;2023-02-15T04:24:01;63.78;;;21.80;;
15748;SDS011;7976;52.526;13.326;2023-02-15T04:26:48;50.28;;;18.88;;
15748;SDS011;7976;52.526;13.326;2023-02-15T04:29:17;54.90;;;21.23;;
15748;SDS011;7976;52.526;13.326;2023-02-15T04:31:45;59.05;;;21.98;;
15748;SDS011;7976;52.526;13.326;2023-02-15T04:34:13;57.85;;;20.38;;
15748;SDS011;7976;52.526;13.326;2023-02-15T04:36:42;62.40;;;21.25;;
15748;SDS011;7976;52.526;13.326;2023-02-15T04:39:12;59.92;;;22.25;;
15748;SDS011;7976;52.526;13.326;2023-02-15T04:41:40;52.58;;;20.20;;
15748;SDS011;7976;52.526;13.326;2023-02-15T04:44:09;56.03;;;20.77;;
15748;SDS011;7976;52.526;13.326;2023-02-15T04:46:37;60.00;;;20.40;;
15748;SDS011;7976;52.526;13.326;2023-02-15T04:49:04;61.63;;;20.90;;
15748;SDS011;7976;52.526;13.326;2023-02-15T04:51:31;53.95;;;19.83;;
15748;SDS011;7976;52.526;13.326;2023-02-15T04:53:58;57.05;;;20.23;;
15748;SDS011;7976;52.526;13.326;2023-02-15T04:56:25;59.08;;;20.23;;
15748;SDS011;7976;52.526;13.326;2023-02-15T04:58:55;59.15;;;20.98;;
15748;SDS011;7976;52.526;13.326;2023-02-15T05:01:23;54.10;;;19.77;;
15748;SDS011;7976;52.526;13.326;2023-02-15T05:03:50;57.00;;;20.17;;
15748;SDS011;7976;52.526;13.326;2023-02-15T05:06:17;58.30;;;21.42;;
15748;SDS011;7976;52.526;13.326;2023-02-15T05:08:44;56.72;;;20.10;;
15748;SDS011;7976;52.526;13.326;2023-02-15T05:11:11;58.40;;;20.58;;
15748;SDS011;7976;52.526;13.326;2023-02-15T05:13:38;63.35;;;21.17;;
15748;SDS011;7976;52.526;13.326;2023-02-15T05:16:05;53.13;;;19.35;;
15748;SDS011;7976;52.526;13.326;2023-02-15T05:18:33;57.42;;;20.15;;
15748;SDS011;7976;52.526;13.326;2023-02-15T05:21:00;58.67;;;20.48;;
15748;SDS011;7976;52.526;13.326;2023-02-15T05:23:27;55.70;;;19.25;;
15748;SDS011;7976;52.526;13.326;2023-02-15T05:25:54;53.17;;;18.73;;
15748;SDS011;7976;52.526;13.326;2023-02-15T05:28:39;53.45;;;18.58;;
15748;SDS011;7976;52.526;13.326;2023-02-15T05:31:07;59.58;;;20.92;;
15748;SDS011;7976;52.526;13.326;2023-02-15T05:33:39;57.83;;;19.23;;
15748;SDS011;7976;52.526;13.326;2023-02-15T05:36:07;54.65;;;19.98;;
15748;SDS011;7976;52.526;13.326;2023-02-15T05:38:35;56.78;;;19.75;;
15748;SDS011;7976;52.526;13.326;2023-02-15T05:41:03;56.25;;;21.48;;
15748;SDS011;7976;52.526;13.326;2023-02-15T05:43:32;54.78;;;20.45;;
15748;SDS011;7976;52.526;13.326;2023-02-15T05:45:59;61.80;;;20.57;;
15748;SDS011;7976;52.526;13.326;2023-02-15T05:48:27;52.30;;;19.77;;
15748;SDS011;7976;52.526;13.326;2023-02-15T05:50:59;60.83;;;19.90;;
15748;SDS011;7976;52.526;13.326;2023-02-15T05:53:30;55.38;;;19.48;;
15748;SDS011;7976;52.526;13.326;2023-02-15T05:56:00;58.60;;;19.90;;
15748;SDS011;7976;52.526;13.326;2023-02-15T05:58:29;62.17;;;20.27;;
15748;SDS011;7976;52.526;13.326;2023-02-15T06:00:59;57.08;;;19.42;;
15748;SDS011;7976;52.526;13.326;2023-02-15T06:03:26;54.42;;;19.58;;
15748;SDS011;7976;52.526;13.326;2023-02-15T06:05:53;64.55;;;20.25;;
15748;SDS011;7976;52.526;13.326;2023-02-15T06:08:22;55.63;;;19.90;;
15748;SDS011;7976;52.526;13.326;2023-02-15T06:10:49;56.58;;;19.55;;
15748;SDS011;7976;52.526;13.326;2023-02-15T06:13:16;58.35;;;20.00;;
15748;SDS011;7976;52.526;13.326;2023-02-15T06:15:43;55.50;;;19.27;;
15748;SDS011;7976;52.526;13.326;2023-02-15T06:18:10;59.67;;;21.00;;
15748;SDS011;7976;52.526;13.326;2023-02-15T06:20:37;57.13;;;19.43;;
15748;SDS011;7976;52.526;13.326;2023-02-15T06:23:04;56.72;;;20.48;;
15748;SDS011;7976;52.526;13.326;2023-02-15T06:25:33;69.57;;;21.00;;
15748;SDS011;7976;52.526;13.326;2023-02-15T06:27:59;66.30;;;19.45;;
15748;SDS011;7976;52.526;13.326;2023-02-15T06:30:27;63.60;;;19.77;;
15748;SDS011;7976;52.526;13.326;2023-02-15T06:32:54;60.90;;;20.73;;
15748;SDS011;7976;52.526;13.326;2023-02-15T06:35:22;70.97;;;22.05;;
15748;SDS011;7976;52.526;13.326;2023-02-15T06:37:49;68.85;;;22.60;;
15748;SDS011;7976;52.526;13.326;2023-02-15T06:40:16;65.85;;;20.33;;
15748;SDS011;7976;52.526;13.326;2023-02-15T06:42:45;60.13;;;21.00;;
15748;SDS011;7976;52.526;13.326;2023-02-15T06:45:12;65.95;;;21.00;;
15748;SDS011;7976;52.526;13.326;2023-02-15T06:47:39;64.97;;;20.33;;
15748;SDS011;7976;52.526;13.326;2023-02-15T06:50:06;63.75;;;19.77;;
15748;SDS011;7976;52.526;13.326;2023-02-15T06:52:35;65.43;;;20.40;;
15748;SDS011;7976;52.526;13.326;2023-02-15T06:55:02;70.30;;;25.83;;
15748;SDS011;7976;52.526;13.326;2023-02-15T06:57:29;60.72;;;19.58;;
15748;SDS011;7976;52.526;13.326;2023-02-15T06:59:58;68.17;;;21.43;;
15748;SDS011;7976;52.526;13.326;2023-02-15T07:02:26;61.40;;;21.42;;
15748;SDS011;7976;52.526;13.326;2023-02-15T07:04:53;63.30;;;21.02;;
15748;SDS011;7976;52.526;13.326;2023-02-15T07:07:20;65.88;;;20.98;;
15748;SDS011;7976;52.526;13.326;2023-02-15T07:09:47;64.37;;;21.00;;
15748;SDS011;7976;52.526;13.326;2023-02-15T07:12:14;59.17;;;20.75;;
15748;SDS011;7976;52.526;13.326;2023-02-15T07:15:00;64.35;;;21.67;;
15748;SDS011;7976;52.526;13.326;2023-02-15T07:17:29;52.75;;;18.38;;
15748;SDS011;7976;52.526;13.326;2023-02-15T07:19:56;65.30;;;21.40;;
15748;SDS011;7976;52.526;13.326;2023-02-15T07:22:24;68.00;;;22.23;;
15748;SDS011;7976;52.526;13.326;2023-02-15T07:24:51;64.93;;;20.20;;
15748;SDS011;7976;52.526;13.326;2023-02-15T07:27:19;64.85;;;21.58;;
15748;SDS011;7976;52.526;13.326;2023-02-15T07:29:47;62.47;;;20.03;;
15748;SDS011;7976;52.526;13.326;2023-02-15T07:32:15;65.35;;;21.27;;
15748;SDS011;7976;52.526;13.326;2023-02-15T07:34:42;70.17;;;21.43;;
15748;SDS011;7976;52.526;13.326;2023-02-15T07:37:11;68.32;;;21.08;;
15748;SDS011;7976;52.526;13.326;2023-02-15T07:39:38;61.85;;;21.00;;
15748;SDS011;7976;52.526;13.326;2023-02-15T07:42:05;59.03;;;20.50;;
15748;SDS011;7976;52.526;13.326;2023-02-15T07:44:32;60.05;;;20.00;;
15748;SDS011;7976;52.526;13.326;2023-02-15T07:46:59;69.78;;;21.35;;
15748;SDS011;7976;52.526;13.326;2023-02-15T07:49:28;62.40;;;19.87;;
15748;SDS011;7976;52.526;13.326;2023-02-15T07:51:55;56.90;;;18.90;;
15748;SDS011;7976;52.526;13.326;2023-02-15T07:54:22;56.77;;;19.63;;
15748;SDS011;7976;52.526;13.326;2023-02-15T07:56:50;67.22;;;20.23;;
15748;SDS011;7976;52.526;13.326;2023-02-15T07:59:17;66.47;;;21.10;;
15748;SDS011;7976;52.526;13.326;2023-02-15T08:01:44;62.77;;;20.93;;
15748;SDS011;7976;52.526;13.326;2023-02-15T08:04:12;63.17;;;20.30;;
15748;SDS011;7976;52.526;13.326;2023-02-15T08:06:41;55.40;;;19.48;;
15748;SDS011;7976;52.526;13.326;2023-02-15T08:09:08;59.60;;;20.17;;
15748;SDS011;7976;52.526;13.326;2023-02-15T08:11:36;55.40;;;19.08;;
15748;SDS011;7976;52.526;13.326;2023-02-15T08:14:06;59.38;;;19.55;;
15748;SDS011;7976;52.526;13.326;2023-02-15T08:16:36;54.08;;;19.05;;
15748;SDS011;7976;52.526;13.326;2023-02-15T08:19:05;53.63;;;18.98;;
15748;SDS011;7976;52.526;13.326;2023-02-15T08:21:35;53.47;;;18.45;;
15748;SDS011;7976;52.526;13.326;2023-02-15T08:24:07;60.60;;;20.05;;
15748;SDS011;7976;52.526;13.326;2023-02-15T08:26:36;52.42;;;18.13;;
15748;SDS011;7976;52.526;13.326;2023-02-15T08:29:05;62.03;;;19.15;;
15748;SDS011;7976;52.526;13.326;2023-02-15T08:31:35;57.15;;;18.77;;
15748;SDS011;7976;52.526;13.326;2023-02-15T08:34:03;52.80;;;19.80;;
15748;SDS011;7976;52.526;13.326;2023-02-15T08:36:31;55.45;;;18.35;;
15748;SDS011;7976;52.526;13.326;2023-02-15T08:38:59;54.95;;;18.45;;
15748;SDS011;7976;52.526;13.326;2023-02-15T08:41:33;53.70;;;18.80;;
15748;SDS011;7976;52.526;13.326;2023-02-15T08:44:06;52.00;;;17.45;;
15748;SDS011;7976;52.526;13.326;2023-02-15T08:46:37;51.95;;;18.15;;
15748;SDS011;7976;52.526;13.326;2023-02-15T08:49:07;55.33;;;17.80;;
15748;SDS011;7976;52.526;13.326;2023-02-15T08:51:36;54.67;;;18.08;;
15748;SDS011;7976;52.526;13.326;2023-02-15T08:54:05;53.40;;;16.88;;
15748;SDS011;7976;52.526;13.326;2023-02-15T08:56:37;49.15;;;18.10;;
15748;SDS011;7976;52.526;13.326;2023-02-15T08:59:07;53.63;;;17.27;;
15748;SDS011;7976;52.526;13.326;2023-02-15T09:01:42;53.47;;;17.52;;
15748;SDS011;7976;52.526;13.326;2023-02-15T09:04:10;50.47;;;17.80;;
15748;SDS011;7976;52.526;13.326;2023-02-15T09:06:40;49.45;;;18.23;;
15748;SDS011;7976;52.526;13.326;2023-02-15T09:09:09;49.65;;;18.60;;
15748;SDS011;7976;52.526;13.326;2023-02-15T09:11:39;49.20;;;18.50;;
15748;SDS011;7976;52.526;13.326;2023-02-15T09:14:10;45.88;;;16.98;;
15748;SDS011;7976;52.526;13.326;2023-02-15T09:16:39;46.95;;;17.67;;
15748;SDS011;7976;52.526;13.326;2023-02-15T09:19:09;50.00;;;17.52;;
15748;SDS011;7976;52.526;13.326;2023-02-15T09:21:37;49.55;;;17.55;;
15748;SDS011;7976;52.526;13.326;2023-02-15T09:24:06;44.08;;;17.38;;
15748;SDS011;7976;52.526;13.326;2023-02-15T09:26:37;43.65;;;16.83;;
15748;SDS011;7976;52.526;13.326;2023-02-15T09:29:07;51.53;;;17.67;;
15748;SDS011;7976;52.526;13.326;2023-02-15T09:31:37;44.28;;;18.23;;
15748;SDS011;7976;52.526;13.326;2023-02-15T09:34:09;50.10;;;17.83;;
15748;SDS011;7976;52.526;13.326;2023-02-15T09:36:38;46.92;;;16.92;;
15748;SDS011;7976;52.526;13.326;2023-02-15T09:39:07;46.33;;;18.85;;
15748;SDS011;7976;52.526;13.326;2023-02-15T09:42:03;46.88;;;17.30;;
15748;SDS011;7976;52.526;13.326;2023-02-15T09:45:12;46.97;;;17.63;;
15748;SDS011;7976;52.526;13.326;2023-02-15T09:48:16;47.05;;;17.02;;
15748;SDS011;7976;52.526;13.326;2023-02-15T09:51:29;50.35;;;17.52;;
15748;SDS011;7976;52.526;13.326;2023-02-15T09:54:28;44.13;;;17.13;;
15748;SDS011;7976;52.526;13.326;2023-02-15T09:57:18;42.78;;;16.40;;
15748;SDS011;7976;52.526;13.326;2023-02-15T09:59:59;46.90;;;17.10;;
15748;SDS011;7976;52.526;13.326;2023-02-15T10:02:44;48.80;;;16.77;;
15748;SDS011;7976;52.526;13.326;2023-02-15T10:05:42;39.88;;;16.27;;
15748;SDS011;7976;52.526;13.326;2023-02-15T10:08:32;46.30;;;16.38;;
15748;SDS011;7976;52.526;13.326;2023-02-15T10:11:22;48.35;;;18.30;;
15748;SDS011;7976;52.526;13.326;2023-02-15T10:14:13;40.83;;;15.32;;
15748;SDS011;7976;52.526;13.326;2023-02-15T10:17:08;41.95;;;16.05;;
15748;SDS011;7976;52.526;13.326;2023-02-15T10:19:56;47.13;;;17.50;;
15748;SDS011;7976;52.526;13.326;2023-02-15T10:22:41;46.20;;;16.92;;
15748;SDS011;7976;52.526;13.326;2023-02-15T10:25:28;40.05;;;16.58;;
15748;SDS011;7976;52.526;13.326;2023-02-15T10:28:09;41.25;;;16.88;;
15748;SDS011;7976;52.526;13.326;2023-02-15T10:30:47;37.97;;;16.85;;
15748;SDS011;7976;52.526;13.326;2023-02-15T10:33:22;40.55;;;17.60;;
15748;SDS011;7976;52.526;13.326;2023-02-15T10:36:07;40.97;;;17.17;;
15748;SDS011;7976;52.526;13.326;2023-02-15T10:38:56;40.95;;;16.67;;
15748;SDS011;7976;52.526;13.326;2023-02-15T10:41:34;37.65;;;16.38;;
15748;SDS011;7976;52.526;13.326;2023-02-15T10:44:16;37.10;;;16.05;;
15748;SDS011;7976;52.526;13.326;2023-02-15T10:47:06;35.75;;;16.15;;
15748;SDS011;7976;52.526;13.326;2023-02-15T10:50:08;41.83;;;17.55;;
15748;SDS011;7976;52.526;13.326;2023-02-15T10:52:56;36.13;;;16.27;;
15748;SDS011;7976;52.526;13.326;2023-02-15T10:55:42;39.05;;;16.42;;
15748;SDS011;7976;52.526;13.326;2023-02-15T10:58:25;41.90;;;17.83;;
15748;SDS011;7976;52.526;13.326;2023-02-15T11:01:13;42.25;;;17.35;;
15748;SDS011;7976;52.526;13.326;2023-02-15T11:03:55;36.03;;;16.90;;
15748;SDS011;7976;52.526;13.326;2023-02-15T11:06:46;38.75;;;16.60;;
15748;SDS011;7976;52.526;13.326;2023-02-15T11:09:20;36.08;;;16.30;;
15748;SDS011;7976;52.526;13.326;2023-02-15T11:11:55;37.67;;;17.15;;
15748;SDS011;7976;52.526;13.326;2023-02-15T11:14:39;37.85;;;15.75;;
15748;SDS011;7976;52.526;13.326;2023-02-15T11:17:16;35.40;;;16.38;;
15748;SDS011;7976;52.526;13.326;2023-02-15T11:19:56;36.95;;;16.70;;
15748;SDS011;7976;52.526;13.326;2023-02-15T11:22:34;39.80;;;17.00;;
15748;SDS011;7976;52.526;13.326;2023-02-15T11:25:05;38.10;;;17.48;;
15748;SDS011;7976;52.526;13.326;2023-02-15T11:27:46;37.60;;;16.73;;
15748;SDS011;7976;52.526;13.326;2023-02-15T11:30:18;33.88;;;16.15;;
15748;SDS011;7976;52.526;13.326;2023-02-15T11:32:48;38.08;;;16.80;;
15748;SDS011;7976;52.526;13.326;2023-02-15T11:35:24;33.75;;;15.65;;
15748;SDS011;7976;52.526;13.326;2023-02-15T11:37:58;34.83;;;16.15;;
15748;SDS011;7976;52.526;13.326;2023-02-15T11:40:48;35.17;;;16.33;;
15748;SDS011;7976;52.526;13.326;2023-02-15T11:43:22;37.40;;;16.48;;
15748;SDS011;7976;52.526;13.326;2023-02-15T11:46:01;34.28;;;16.48;;
15748;SDS011;7976;52.526;13.326;2023-02-15T11:48:30;33.47;;;15.63;;
15748;SDS011;7976;52.526;13.326;2023-02-15T11:51:00;33.42;;;15.90;;
15748;SDS011;7976;52.526;13.326;2023-02-15T11:53:31;37.10;;;16.75;;
15748;SDS011;7976;52.526;13.326;2023-02-15T11:56:03;32.38;;;14.10;;
15748;SDS011;7976;52.526;13.326;2023-02-15T11:58:39;33.17;;;14.40;;
15748;SDS011;7976;52.526;13.326;2023-02-15T12:01:13;29.50;;;14.15;;
15748;SDS011;7976;52.526;13.326;2023-02-15T12:03:47;31.52;;;13.82;;
15748;SDS011;7976;52.526;13.326;2023-02-15T12:06:21;33.58;;;14.65;;
15748;SDS011;7976;52.526;13.326;2023-02-15T12:08:53;33.72;;;14.65;;
15748;SDS011;7976;52.526;13.326;2023-02-15T12:11:33;30.15;;;14.45;;
15748;SDS011;7976;52.526;13.326;2023-02-15T12:14:07;34.33;;;16.00;;
15748;SDS011;7976;52.526;13.326;2023-02-15T12:16:41;33.13;;;15.32;;
15748;SDS011;7976;52.526;13.326;2023-02-15T12:19:13;31.15;;;15.80;;
15748;SDS011;7976;52.526;13.326;2023-02-15T12:21:58;34.90;;;15.82;;
15748;SDS011;7976;52.526;13.326;2023-02-15T12:24:30;33.42;;;16.02;;
15748;SDS011;7976;52.526;13.326;2023-02-15T12:27:02;32.40;;;15.13;;
15748;SDS011;7976;52.526;13.326;2023-02-15T12:29:35;32.30;;;15.18;;
15748;SDS011;7976;52.526;13.326;2023-02-15T12:32:09;32.30;;;14.98;;
15748;SDS011;7976;52.526;13.326;2023-02-15T12:34:44;33.25;;;15.05;;
15748;SDS011;7976;52.526;13.326;2023-02-15T12:37:16;36.03;;;15.63;;
15748;SDS011;7976;52.526;13.326;2023-02-15T12:39:53;29.95;;;13.35;;
15748;SDS011;7976;52.526;13.326;2023-02-15T12:42:22;28.80;;;13.88;;
15748;SDS011;7976;52.526;13.326;2023-02-15T12:44:58;27.67;;;13.40;;
15748;SDS011;7976;52.526;13.326;2023-02-15T12:47:27;28.63;;;13.93;;
15748;SDS011;7976;52.526;13.326;2023-02-15T12:50:10;28.40;;;13.52;;
15748;SDS011;7976;52.526;13.326;2023-02-15T12:52:45;31.60;;;14.40;;
15748;SDS011;7976;52.526;13.326;2023-02-15T12:55:20;31.42;;;14.27;;
15748;SDS011;7976;52.526;13.326;2023-02-15T12:58:04;26.60;;;13.35;;
15748;SDS011;7976;52.526;13.326;2023-02-15T13:00:34;30.05;;;14.07;;
15748;SDS011;7976;52.526;13.326;2023-02-15T13:03:02;30.20;;;14.20;;
15748;SDS011;7976;52.526;13.326;2023-02-15T13:05:31;31.75;;;14.88;;
15748;SDS011;7976;52.526;13.326;2023-02-15T13:08:10;30.05;;;13.90;;
15748;SDS011;7976;52.526;13.326;2023-02-15T13:10:51;28.30;;;14.48;;
15748;SDS011;7976;52.526;13.326;2023-02-15T13:13:23;25.98;;;12.43;;
15748;SDS011;7976;52.526;13.326;2023-02-15T13:15:54;31.60;;;13.80;;
15748;SDS011;7976;52.526;13.326;2023-02-15T13:18:29;27.88;;;13.48;;
15748;SDS011;7976;52.526;13.326;2023-02-15T13:21:01;28.25;;;13.57;;
15748;SDS011;7976;52.526;13.326;2023-02-15T13:23:40;31.15;;;13.95;;
15748;SDS011;7976;52.526;13.326;2023-02-15T13:26:15;26.85;;;13.07;;
15748;SDS011;7976;52.526;13.326;2023-02-15T13:28:47;30.55;;;14.43;;
15748;SDS011;7976;52.526;13.326;2023-02-15T13:31:24;25.90;;;12.63;;
15748;SDS011;7976;52.526;13.326;2023-02-15T13:33:58;26.75;;;13.02;;
15748;SDS011;7976;52.526;13.326;2023-02-15T13:36:36;30.83;;;13.93;;
15748;SDS011;7976;52.526;13.326;2023-02-15T13:39:19;27.90;;;13.55;;
15748;SDS011;7976;52.526;13.326;2023-02-15T13:41:57;26.67;;;12.85;;
15748;SDS011;7976;52.526;13.326;2023-02-15T13:47:46;27.00;;;12.68;;
15748;SDS011;7976;52.526;13.326;2023-02-15T13:50:34;29.33;;;13.32;;
15748;SDS011;7976;52.526;13.326;2023-02-15T13:53:22;26.33;;;12.50;;
15748;SDS011;7976;52.526;13.326;2023-02-15T13:56:16;29.10;;;14.10;;
15748;SDS011;7976;52.526;13.326;2023-02-15T13:59:01;28.55;;;13.27;;
15748;SDS011;7976;52.526;13.326;2023-02-15T14:01:49;28.65;;;13.65;;
15748;SDS011;7976;52.526;13.326;2023-02-15T14:07:47;25.85;;;12.70;;
15748;SDS011;7976;52.526;13.326;2023-02-15T14:10:34;27.70;;;12.63;;
15748;SDS011;7976;52.526;13.326;2023-02-15T14:13:31;27.38;;;13.32;;
15748;SDS011;7976;52.526;13.326;2023-02-15T14:16:26;32.05;;;15.38;;
15748;SDS011;7976;52.526;13.326;2023-02-15T14:19:09;30.08;;;13.82;;
15748;SDS011;7976;52.526;13.326;2023-02-15T14:21:50;32.47;;;14.00;;
15748;SDS011;7976;52.526;13.326;2023-02-15T14:24:29;32.15;;;13.68;;
15748;SDS011;7976;52.526;13.326;2023-02-15T14:27:05;31.35;;;13.55;;
15748;SDS011;7976;52.526;13.326;2023-02-15T14:29:50;27.35;;;13.32;;
15748;SDS011;7976;52.526;13.326;2023-02-15T14:32:25;26.98;;;12.77;;
15748;SDS011;7976;52.526;13.326;2023-02-15T14:35:00;28.67;;;13.60;;
15748;SDS011;7976;52.526;13.326;2023-02-15T14:37:34;27.88;;;13.02;;
15748;SDS011;7976;52.526;13.326;2023-02-15T14:40:15;26.35;;;13.27;;
15748;SDS011;7976;52.526;13.326;2023-02-15T14:43:15;26.38;;;13.07;;
15748;SDS011;7976;52.526;13.326;2023-02-15T14:46:00;26.48;;;12.75;;
15748;SDS011;7976;52.526;13.326;2023-02-15T14:48:38;28.23;;;12.75;;
15748;SDS011;7976;52.526;13.326;2023-02-15T14:51:25;31.92;;;13.50;;
15748;SDS011;7976;52.526;13.326;2023-02-15T14:57:56;27.13;;;12.63;;
15748;SDS011;7976;52.526;13.326;2023-02-15T15:00:28;29.80;;;13.05;;
15748;SDS011;7976;52.526;13.326;2023-02-15T15:03:10;28.33;;;13.77;;
15748;SDS011;7976;52.526;13.326;2023-02-15T15:05:48;26.00;;;12.73;;
15748;SDS011;7976;52.526;13.326;2023-02-15T15:08:28;26.65;;;12.68;;
15748;SDS011;7976;52.526;13.326;2023-02-15T15:14:13;26.75;;;13.05;;
15748;SDS011;7976;52.526;13.326;2023-02-15T15:17:06;26.15;;;12.90;;
15748;SDS011;7976;52.526;13.326;2023-02-15T15:22:38;23.38;;;11.48;;
15748;SDS011;7976;52.526;13.326;2023-02-15T15:25:39;28.15;;;13.38;;
15748;SDS011;7976;52.526;13.326;2023-02-15T15:28:10;27.95;;;12.40;;
15748;SDS011;7976;52.526;13.326;2023-02-15T15:31:20;24.10;;;11.88;;